Time;durP1;ratioP1;P1;durP2;ratioP2;P2;SDS_P1;SDS_P2;PMS_P1;PMS_P2;Temp;Humidity;BMP_temperature;BMP_pressure;BME280_temperature;BME280_humidity;BME280_pressure;Samples;Min_cycle;Max_cycle;Signal;HPM_P1;HPM_P2
2021/10/15 00:00:29;;;;;;;19.63;17.60;;;;;;;13.86;100.00;100701.75;4950686;28;20214;-71
2021/10/15 00:02:55;;;;;;;19.67;17.60;;;;;;;13.89;100.00;100698.41;4922822;29;20683;-71
2021/10/15 00:05:26;;;;;;;18.50;16.53;;;;;;;13.76;100.00;100703.78;4951147;28;20634;-70
2021/10/15 00:07:56;;;;;;;19.40;17.30;;;;;;;13.82;100.00;100697.16;4935577;29;20246;-71
2021/10/15 00:10:22;;;;;;;18.33;16.43;;;;;;;13.79;100.00;100703.22;4934953;28;20210;-71
2021/10/15 00:12:47;;;;;;;19.03;17.03;;;;;;;13.84;100.00;100694.94;4920100;29;20637;-71
2021/10/15 00:15:13;;;;;;;19.13;16.10;;;;;;;13.95;100.00;100689.03;4919218;28;20253;-72
2021/10/15 00:17:38;;;;;;;20.03;16.67;;;;;;;13.87;100.00;100677.97;4935480;29;20249;-70
2021/10/15 00:20:12;;;;;;;19.57;17.67;;;;;;;13.89;100.00;100683.97;4919597;29;20230;-71
2021/10/15 00:22:40;;;;;;;20.33;16.47;;;;;;;13.90;100.00;100672.75;4951755;28;20241;-71
2021/10/15 00:25:08;;;;;;;17.40;15.60;;;;;;;13.83;100.00;100675.00;4919252;28;20191;-70
2021/10/15 00:27:34;;;;;;;17.23;15.47;;;;;;;13.86;100.00;100681.78;4967667;28;20530;-71
2021/10/15 00:30:01;;;;;;;17.80;15.90;;;;;;;13.75;100.00;100669.38;4919521;29;20203;-71
2021/10/15 00:32:27;;;;;;;17.20;15.57;;;;;;;13.97;100.00;100667.75;4933118;29;20233;-70
2021/10/15 00:34:52;;;;;;;17.30;15.37;;;;;;;13.94;100.00;100662.84;4951556;28;20238;-70
2021/10/15 00:37:19;;;;;;;16.53;14.70;;;;;;;13.80;100.00;100665.78;4938262;28;20223;-72
2021/10/15 00:39:48;;;;;;;16.70;14.93;;;;;;;13.91;100.00;100662.63;4938737;28;20695;-71
2021/10/15 00:42:16;;;;;;;19.67;16.27;;;;;;;13.83;100.00;100661.38;4954392;28;20270;-71
2021/10/15 00:44:41;;;;;;;18.57;15.77;;;;;;;13.87;100.00;100656.13;4955887;28;20248;-70
2021/10/15 00:47:07;;;;;;;18.37;16.37;;;;;;;13.88;100.00;100647.66;4938339;29;20619;-72
2021/10/15 00:49:33;;;;;;;17.43;15.27;;;;;;;13.82;100.00;100646.06;4954222;28;20195;-71
2021/10/15 00:52:01;;;;;;;16.97;15.27;;;;;;;13.77;100.00;100639.88;4953877;28;20215;-71
2021/10/15 00:54:26;;;;;;;16.97;15.17;;;;;;;13.66;100.00;100632.94;4922959;29;20206;-71
2021/10/15 00:56:54;;;;;;;16.47;14.87;;;;;;;13.77;100.00;100623.47;4922278;29;20227;-71
2021/10/15 00:59:19;;;;;;;18.07;15.53;;;;;;;13.79;100.00;100629.50;4922276;29;20533;-72
2021/10/15 01:01:45;;;;;;;17.27;15.43;;;;;;;13.80;100.00;100630.28;4951031;28;20231;-71
2021/10/15 01:04:11;;;;;;;17.73;16.03;;;;;;;13.73;100.00;100629.84;4925777;29;20199;-70
2021/10/15 01:06:36;;;;;;;19.13;16.10;;;;;;;13.80;100.00;100622.09;4955394;28;20301;-72
2021/10/15 01:09:02;;;;;;;17.83;16.03;;;;;;;13.86;100.00;100619.00;4953821;28;20194;-71
2021/10/15 01:11:28;;;;;;;17.23;15.43;;;;;;;13.79;100.00;100613.09;4937791;28;20321;-74
2021/10/15 01:13:58;;;;;;;17.70;15.90;;;;;;;13.80;100.00;100606.53;4922286;29;20246;-70
2021/10/15 01:16:28;;;;;;;18.10;15.50;;;;;;;13.81;100.00;100596.41;4953754;28;20223;-71
2021/10/15 01:18:57;;;;;;;18.23;16.07;;;;;;;13.79;100.00;100601.34;4914023;29;20204;-71
2021/10/15 01:21:22;;;;;;;17.63;15.83;;;;;;;13.80;100.00;100603.78;4918863;28;20355;-71
2021/10/15 01:23:52;;;;;;;18.40;16.27;;;;;;;13.90;100.00;100609.13;4899034;29;20196;-71
2021/10/15 01:26:18;;;;;;;18.00;16.10;;;;;;;13.84;100.00;100607.56;4902765;29;20604;-70
2021/10/15 01:28:46;;;;;;;16.67;14.97;;;;;;;13.83;100.00;100605.94;4931572;29;20179;-71
2021/10/15 01:31:12;;;;;;;18.60;15.23;;;;;;;13.72;100.00;100604.47;4921849;29;20235;-71
2021/10/15 01:33:37;;;;;;;18.30;15.47;;;;;;;13.72;100.00;100599.00;4943530;29;20233;-72
2021/10/15 01:36:03;;;;;;;17.43;15.07;;;;;;;13.64;100.00;100585.19;4937211;29;20302;-71
2021/10/15 01:38:29;;;;;;;16.80;14.83;;;;;;;13.76;100.00;100583.66;4954853;28;20203;-71
2021/10/15 01:40:55;;;;;;;17.20;15.50;;;;;;;13.69;100.00;100577.75;4937472;28;20285;-70
2021/10/15 01:43:26;;;;;;;17.17;15.40;;;;;;;13.65;100.00;100573.19;4953660;28;20691;-70
2021/10/15 01:45:53;;;;;;;16.77;15.07;;;;;;;13.52;100.00;100576.63;4923312;29;20783;-71
2021/10/15 01:48:19;;;;;;;16.93;14.50;;;;;;;13.68;100.00;100575.28;4954663;29;20210;-71
2021/10/15 01:50:45;;;;;;;15.97;14.27;;;;;;;13.66;100.00;100572.06;4921653;29;20234;-70
2021/10/15 01:53:10;;;;;;;15.83;13.73;;;;;;;13.74;100.00;100574.94;4937883;29;20177;-71
2021/10/15 01:55:37;;;;;;;15.90;13.90;;;;;;;13.62;100.00;100566.38;4954901;28;20297;-70
2021/10/15 01:58:05;;;;;;;17.07;13.83;;;;;;;13.64;100.00;100555.97;4937816;29;20215;-71
2021/10/15 02:00:30;;;;;;;15.97;14.30;;;;;;;13.78;100.00;100554.13;4953954;28;20380;-70
2021/10/15 02:02:56;;;;;;;15.50;13.20;;;;;;;13.68;100.00;100543.38;4923833;29;20181;-70
2021/10/15 02:05:22;;;;;;;15.77;14.10;;;;;;;13.65;100.00;100538.50;4953200;28;20641;-71
2021/10/15 02:07:50;;;;;;;14.50;13.00;;;;;;;13.55;100.00;100537.81;4937256;29;20641;-71
2021/10/15 02:10:16;;;;;;;14.10;12.60;;;;;;;13.53;100.00;100540.88;4936720;28;20646;-70
2021/10/15 02:12:48;;;;;;;14.73;12.57;;;;;;;13.63;100.00;100537.19;4938964;29;20227;-69
2021/10/15 02:15:15;;;;;;;16.67;12.77;;;;;;;13.66;100.00;100522.91;4937140;28;20187;-72
2021/10/15 02:17:43;;;;;;;15.93;12.37;;;;;;;13.53;100.00;100513.56;4953484;29;20211;-71
2021/10/15 02:20:12;;;;;;;16.40;12.47;;;;;;;13.61;100.00;100509.38;4936906;28;20207;-71
2021/10/15 02:22:41;;;;;;;13.93;12.20;;;;;;;13.59;100.00;100509.66;4922748;28;20214;-72
2021/10/15 02:25:07;;;;;;;17.20;12.57;;;;;;;13.59;100.00;100512.38;4936443;28;20187;-71
2021/10/15 02:27:33;;;;;;;15.97;12.20;;;;;;;13.52;100.00;100509.22;4937524;29;20183;-71
2021/10/15 02:29:59;;;;;;;14.80;11.37;;;;;;;13.52;100.00;100505.69;4936827;29;20274;-71
2021/10/15 02:32:24;;;;;;;12.37;10.73;;;;;;;13.51;100.00;100499.38;4912977;29;20227;-72
2021/10/15 02:34:51;;;;;;;13.30;10.80;;;;;;;13.49;100.00;100512.50;4914834;29;20187;-72
2021/10/15 02:37:19;;;;;;;11.87;10.67;;;;;;;13.35;100.00;100493.63;4936651;29;20700;-71
2021/10/15 02:39:44;;;;;;;21.37;12.03;;;;;;;13.68;100.00;100499.69;4921033;28;20222;-70
2021/10/15 02:42:10;;;;;;;12.00;10.80;;;;;;;13.67;100.00;100486.34;4952714;28;20215;-71
2021/10/15 02:44:38;;;;;;;13.77;10.87;;;;;;;13.64;100.00;100479.53;4936699;29;20190;-71
2021/10/15 02:47:03;;;;;;;12.97;10.97;;;;;;;13.58;100.00;100486.19;4936411;29;20231;-71
2021/10/15 02:49:29;;;;;;;14.17;10.13;;;;;;;13.57;100.00;100484.59;4952153;29;20187;-71
2021/10/15 02:51:55;;;;;;;12.50;10.23;;;;;;;13.59;100.00;100476.91;4936915;28;20696;-71
2021/10/15 02:54:21;;;;;;;14.57;11.20;;;;;;;13.55;100.00;100470.41;4932999;29;20188;-71
2021/10/15 02:56:47;;;;;;;11.50;10.30;;;;;;;13.56;100.00;100463.03;4933320;28;20219;-71
2021/10/15 02:59:12;;;;;;;11.77;9.73;;;;;;;13.55;100.00;100473.16;4937931;29;20201;-71
2021/10/15 03:01:38;;;;;;;10.90;9.80;;;;;;;13.49;100.00;100468.84;4932797;28;20278;-72
2021/10/15 03:04:03;;;;;;;11.27;10.00;;;;;;;13.53;100.00;100461.72;4910863;29;20191;-72
2021/10/15 03:06:29;;;;;;;11.67;9.27;;;;;;;13.57;100.00;100449.09;4952204;28;20227;-70
2021/10/15 03:08:55;;;;;;;13.43;9.70;;;;;;;13.51;100.00;100457.66;4936434;29;20182;-71
2021/10/15 03:11:25;;;;;;;10.37;8.97;;;;;;;13.48;100.00;100450.88;4920820;29;20231;-70
2021/10/15 03:13:50;;;;;;;10.57;9.37;;;;;;;13.50;100.00;100459.56;4936413;29;20187;-71
2021/10/15 03:16:20;;;;;;;11.03;9.00;;;;;;;13.53;100.00;100453.53;4916945;29;20226;-70
2021/10/15 03:18:46;;;;;;;11.37;9.43;;;;;;;13.50;100.00;100443.19;4917049;29;20215;-70
2021/10/15 03:21:14;;;;;;;13.10;9.63;;;;;;;13.47;100.00;100449.25;4933977;28;20716;-70
2021/10/15 03:23:40;;;;;;;10.17;9.17;;;;;;;13.45;100.00;100451.44;4903379;29;20191;-69
2021/10/15 03:26:10;;;;;;;10.13;9.00;;;;;;;13.49;100.00;100436.09;4902077;29;20286;-73
2021/10/15 03:28:35;;;;;;;11.40;8.97;;;;;;;13.45;100.00;100438.94;4916485;29;20219;-70
2021/10/15 03:31:04;;;;;;;10.80;8.93;;;;;;;13.45;100.00;100436.19;4932365;28;20228;-71
2021/10/15 03:33:32;;;;;;;14.40;9.50;;;;;;;13.39;100.00;100437.38;4940939;29;20226;-70
2021/10/15 03:35:57;;;;;;;11.80;8.90;;;;;;;13.42;100.00;100434.84;4934994;29;20219;-72
2021/10/15 03:38:23;;;;;;;11.10;8.70;;;;;;;13.53;100.00;100439.88;4920090;29;20210;-71
2021/10/15 03:40:48;;;;;;;10.37;8.83;;;;;;;13.35;100.00;100434.44;5116195;23;20232;-72
2021/10/15 03:43:14;;;;;;;10.40;8.97;;;;;;;13.49;100.00;100427.91;4981989;28;20193;-73
2021/10/15 03:45:42;;;;;;;10.77;8.67;;;;;;;13.37;100.00;100425.94;4962950;28;20220;-71
2021/10/15 03:48:08;;;;;;;11.87;9.13;;;;;;;13.40;100.00;100433.53;5013614;28;20196;-70
2021/10/15 03:50:36;;;;;;;12.27;9.17;;;;;;;13.38;100.00;100425.66;5017274;28;20260;-72
2021/10/15 03:53:01;;;;;;;9.67;8.50;;;;;;;13.44;100.00;100419.00;4990172;28;20200;-73
2021/10/15 03:55:27;;;;;;;11.73;8.97;;;;;;;13.26;100.00;100413.56;4965128;28;20220;-73
2021/10/15 03:57:54;;;;;;;9.13;7.90;;;;;;;13.35;100.00;100422.69;5009825;28;20201;-73
2021/10/15 04:00:20;;;;;;;10.33;7.87;;;;;;;13.36;100.00;100424.34;4979210;28;20240;-72
2021/10/15 04:02:46;;;;;;;9.87;7.60;;;;;;;13.29;100.00;100412.97;4974007;28;20602;-70
2021/10/15 04:05:13;;;;;;;10.70;7.70;;;;;;;13.28;100.00;100400.47;4993302;28;20174;-71
2021/10/15 04:07:41;;;;;;;9.73;7.73;;;;;;;13.39;100.00;100404.63;4977954;28;20281;-73
2021/10/15 04:10:07;;;;;;;8.80;7.90;;;;;;;13.35;100.00;100400.88;4993223;28;20202;-74
2021/10/15 04:12:33;;;;;;;10.00;8.07;;;;;;;13.35;100.00;100400.88;4994075;28;20735;-72
2021/10/15 04:15:01;;;;;;;9.80;8.03;;;;;;;13.33;100.00;100394.91;4995057;28;20177;-72
2021/10/15 04:17:26;;;;;;;9.90;7.83;;;;;;;13.25;100.00;100387.41;4981664;28;20738;-73
2021/10/15 04:19:55;;;;;;;12.87;8.67;;;;;;;13.24;100.00;100383.03;4997625;28;20232;-73
2021/10/15 04:22:20;;;;;;;10.83;7.83;;;;;;;13.36;100.00;100380.69;4977638;28;20232;-73
2021/10/15 04:24:46;;;;;;;10.53;7.80;;;;;;;13.45;100.00;100376.97;4994457;28;20236;-72
2021/10/15 04:27:11;;;;;;;9.67;7.20;;;;;;;13.25;100.00;100371.03;4994851;28;20232;-73
2021/10/15 04:29:42;;;;;;;11.07;8.27;;;;;;;13.34;100.00;100366.53;4996449;28;20189;-71
2021/10/15 04:32:07;;;;;;;10.57;7.60;;;;;;;13.26;100.00;100359.00;4991738;28;20260;-72
2021/10/15 04:34:33;;;;;;;9.77;7.80;;;;;;;13.32;100.00;100357.84;5007435;28;20185;-72
2021/10/15 04:37:01;;;;;;;10.10;8.20;;;;;;;13.36;100.00;100353.41;4980690;28;20233;-72
2021/10/15 04:39:27;;;;;;;10.07;7.27;;;;;;;13.40;100.00;100338.06;5000366;28;20197;-72
2021/10/15 04:41:54;;;;;;;8.90;7.37;;;;;;;13.37;100.00;100346.81;4953655;28;20256;-70
2021/10/15 04:44:20;;;;;;;9.13;7.07;;;;;;;13.39;100.00;100341.88;4997965;28;20190;-71
2021/10/15 04:46:48;;;;;;;11.00;7.80;;;;;;;13.19;100.00;100334.03;5002584;28;20588;-72
2021/10/15 04:49:13;;;;;;;10.87;7.53;;;;;;;13.29;100.00;100336.59;5010758;28;20231;-71
2021/10/15 04:51:39;;;;;;;9.70;7.17;;;;;;;13.33;100.00;100333.00;5022389;28;20589;-71
2021/10/15 04:54:04;;;;;;;10.13;6.93;;;;;;;13.38;100.00;100330.16;4996612;28;20189;-72
2021/10/15 04:56:30;;;;;;;10.60;7.20;;;;;;;13.23;100.00;100313.25;5004114;28;20216;-71
2021/10/15 04:58:58;;;;;;;7.60;6.10;;;;;;;13.27;100.00;100317.00;5032694;28;20287;-72
2021/10/15 05:01:24;;;;;;;7.83;6.47;;;;;;;13.21;100.00;100307.28;5008082;28;20217;-72
2021/10/15 05:03:52;;;;;;;7.93;6.17;;;;;;;13.20;100.00;100305.66;5020304;28;20283;-72
2021/10/15 05:06:18;;;;;;;8.63;6.13;;;;;;;13.14;100.00;100298.66;5016600;28;20208;-72
2021/10/15 05:09:33;;;;;;;8.93;6.27;;;;;;;13.28;100.00;100280.44;5015739;28;20191;-71
2021/10/15 05:11:30;;;;;;;8.07;6.10;;;;;;;13.34;100.00;100290.16;5008868;28;20232;-72
2021/10/15 05:13:56;;;;;;;8.03;6.33;;;;;;;13.37;100.00;100297.72;4965456;28;20193;-71
2021/10/15 05:16:21;;;;;;;8.63;6.10;;;;;;;13.32;100.00;100297.81;5000849;28;20253;-71
2021/10/15 05:19:11;;;;;;;8.00;6.43;;;;;;;13.30;100.00;100300.03;4999902;28;20259;-72
2021/10/15 05:21:38;;;;;;;8.50;6.07;;;;;;;13.23;100.00;100294.16;4988815;28;20691;-72
2021/10/15 05:24:06;;;;;;;8.37;6.03;;;;;;;13.14;100.00;100299.47;4990224;28;20538;-72
2021/10/15 05:26:34;;;;;;;7.57;6.20;;;;;;;13.22;100.00;100292.53;4972464;28;20226;-72
2021/10/15 05:29:05;;;;;;;7.03;5.40;;;;;;;13.21;100.00;100285.47;4990154;28;20190;-74
2021/10/15 05:31:31;;;;;;;8.03;5.70;;;;;;;13.29;100.00;100273.84;4977778;28;20686;-78
2021/10/15 05:34:01;;;;;;;7.30;5.53;;;;;;;13.13;100.00;100277.94;4992257;28;20193;-72
2021/10/15 05:36:26;;;;;;;9.00;5.40;;;;;;;13.24;100.00;100274.78;4975584;28;20226;-72
2021/10/15 05:38:53;;;;;;;6.67;5.77;;;;;;;13.21;100.00;100266.38;4991955;28;20225;-72
2021/10/15 05:41:40;;;;;;;7.10;5.47;;;;;;;13.15;100.00;100273.03;4973683;28;20228;-72
2021/10/15 05:44:05;;;;;;;7.27;5.17;;;;;;;13.02;100.00;100265.59;4990926;28;20209;-73
2021/10/15 05:46:33;;;;;;;8.43;5.90;;;;;;;13.03;100.00;100271.84;4973810;28;20210;-73
2021/10/15 05:48:59;;;;;;;5.97;5.30;;;;;;;13.09;100.00;100271.47;4990251;28;20186;-72
2021/10/15 05:51:26;;;;;;;6.50;4.87;;;;;;;13.17;100.00;100268.06;4990239;28;20240;-73
2021/10/15 05:53:52;;;;;;;7.03;5.23;;;;;;;13.05;100.00;100259.53;4977970;28;20351;-72
2021/10/15 05:59:07;;;;;;;7.70;5.33;;;;;;;13.10;100.00;100254.81;4985815;28;20210;-71
2021/10/15 06:01:34;;;;;;;5.63;4.83;;;;;;;13.10;100.00;100264.91;4988458;28;20234;-71
2021/10/15 06:14:31;;;;;;;6.03;4.53;;;;;;;13.15;100.00;100245.75;4974126;28;20190;-73
2021/10/15 06:17:06;;;;;;;5.37;4.63;;;;;;;13.17;100.00;100246.25;4957389;28;20614;-72
2021/10/15 06:19:43;;;;;;;7.57;4.83;;;;;;;13.14;100.00;100252.31;4997820;28;20185;-72
2021/10/15 06:22:12;;;;;;;10.07;4.83;;;;;;;13.15;100.00;100248.47;4994231;28;20265;-72
2021/10/15 06:24:38;;;;;;;9.03;5.20;;;;;;;13.21;100.00;100242.63;5011402;28;20185;-72
2021/10/15 06:27:03;;;;;;;7.47;4.60;;;;;;;13.18;100.00;100232.31;4994104;28;20274;-71
2021/10/15 06:29:34;;;;;;;5.63;4.53;;;;;;;13.15;100.00;100227.47;4991551;28;20740;-72
2021/10/15 06:32:08;;;;;;;7.10;4.77;;;;;;;13.17;100.00;100229.91;4986303;28;20280;-72
2021/10/15 06:34:34;;;;;;;7.37;4.80;;;;;;;13.27;100.00;100227.78;5003083;28;20231;-73
2021/10/15 06:37:02;;;;;;;6.47;4.40;;;;;;;13.22;100.00;100229.78;4990567;28;20300;-73
2021/10/15 06:39:32;;;;;;;7.33;4.70;;;;;;;13.21;100.00;100215.34;4976730;28;20257;-71
2021/10/15 06:42:00;;;;;;;6.43;4.40;;;;;;;13.16;100.00;100215.44;4950690;28;20226;-71
2021/10/15 06:44:28;;;;;;;6.63;4.80;;;;;;;13.11;100.00;100214.72;4991539;28;20182;-72
2021/10/15 06:47:01;;;;;;;6.17;4.43;;;;;;;13.19;100.00;100217.56;4990361;28;20213;-73
2021/10/15 06:49:26;;;;;;;5.87;4.30;;;;;;;13.10;100.00;100213.91;4990713;28;20236;-72
2021/10/15 06:51:52;;;;;;;6.10;4.37;;;;;;;13.34;100.00;100213.75;5033561;23;20234;-72
2021/10/15 06:54:18;;;;;;;6.63;4.60;;;;;;;13.21;100.00;100209.09;4986680;28;20193;-73
2021/10/15 06:56:48;;;;;;;7.87;4.53;;;;;;;13.21;100.00;100214.53;4967435;28;20230;-73
2021/10/15 06:59:14;;;;;;;7.33;4.80;;;;;;;13.21;100.00;100209.91;4995766;28;20210;-72
2021/10/15 07:01:42;;;;;;;5.60;4.33;;;;;;;13.35;100.00;100216.19;4998551;28;20230;-71
2021/10/15 07:04:08;;;;;;;8.80;4.83;;;;;;;13.22;100.00;100211.53;4983308;28;20582;-72
2021/10/15 07:06:34;;;;;;;7.07;4.57;;;;;;;13.28;100.00;100210.31;4974038;28;20352;-73
2021/10/15 07:09:08;;;;;;;7.40;4.67;;;;;;;13.26;100.00;100207.09;4974993;28;20189;-71
2021/10/15 07:11:38;;;;;;;8.33;4.67;;;;;;;13.39;100.00;100205.47;4975318;28;20235;-72
2021/10/15 07:14:06;;;;;;;6.93;4.73;;;;;;;13.27;100.00;100207.88;4981480;28;20182;-73
2021/10/15 07:16:36;;;;;;;6.97;4.97;;;;;;;13.21;100.00;100203.63;4955107;28;20594;-72
2021/10/15 07:19:02;;;;;;;7.20;4.87;;;;;;;13.12;100.00;100221.78;4980909;28;20206;-71
2021/10/15 07:21:30;;;;;;;8.87;4.93;;;;;;;13.01;100.00;100206.72;4990915;28;20933;-73
2021/10/15 07:24:00;;;;;;;7.60;5.10;;;;;;;13.06;100.00;100217.53;4950838;28;20182;-73
2021/10/15 07:26:28;;;;;;;7.30;5.37;;;;;;;13.09;100.00;100222.38;4970638;28;20727;-73
2021/10/15 07:28:54;;;;;;;6.60;5.50;;;;;;;12.85;100.00;100226.34;5060408;23;20396;-71
2021/10/15 07:31:22;;;;;;;7.70;5.47;;;;;;;12.81;100.00;100230.78;4970632;28;20256;-72
2021/10/15 07:33:50;;;;;;;9.53;6.30;;;;;;;12.71;100.00;100226.28;4921349;29;20191;-72
2021/10/15 07:36:16;;;;;;;8.73;5.67;;;;;;;12.77;100.00;100229.72;4950962;28;20218;-73
2021/10/15 07:38:41;;;;;;;8.17;6.27;;;;;;;12.73;100.00;100234.94;4942778;28;20715;-73
2021/10/15 07:41:07;;;;;;;7.80;6.70;;;;;;;12.76;100.00;100223.47;4995719;28;20248;-72
2021/10/15 07:43:33;;;;;;;8.50;6.80;;;;;;;12.73;100.00;100237.69;4995919;28;20185;-74
2021/10/15 07:45:58;;;;;;;8.23;6.50;;;;;;;12.59;100.00;100237.91;4945271;28;20236;-73
2021/10/15 07:48:29;;;;;;;9.50;7.03;;;;;;;12.43;100.00;100250.94;4962205;28;20211;-73
2021/10/15 07:50:57;;;;;;;11.00;7.10;;;;;;;12.38;100.00;100252.91;4981136;28;20229;-74
2021/10/15 07:53:23;;;;;;;8.37;7.13;;;;;;;12.27;100.00;100251.47;4997253;28;20197;-73
2021/10/15 07:55:52;;;;;;;10.13;7.67;;;;;;;12.24;100.00;100260.19;4941839;28;20230;-74
2021/10/15 07:58:20;;;;;;;12.83;8.73;;;;;;;12.01;100.00;100367.22;4973483;28;20218;-76
2021/10/15 08:01:12;;;;;;;16.73;8.70;;;;;;;12.02;100.00;100368.81;4993282;28;20279;-73
2021/10/15 08:03:40;;;;;;;8.37;5.70;;;;;;;11.84;100.00;100397.88;4984989;28;20204;-74
2021/10/15 08:06:06;;;;;;;3.40;2.80;;;;;;;11.62;100.00;100403.78;4980384;28;20295;-76
2021/10/15 08:08:34;;;;;;;4.67;1.73;;;;;;;11.60;100.00;100397.81;4964139;28;20670;-74
2021/10/15 08:11:00;;;;;;;2.50;1.10;;;;;;;11.31;100.00;100414.34;4996412;28;20233;-75
2021/10/15 08:13:30;;;;;;;0.80;0.80;;;;;;;11.05;100.00;100423.75;4964647;28;20189;-75
2021/10/15 08:15:57;;;;;;;2.57;0.90;;;;;;;10.99;100.00;100441.19;4979083;28;20306;-74
2021/10/15 08:18:23;;;;;;;2.07;0.80;;;;;;;10.94;100.00;100440.41;4945185;28;20209;-75
2021/10/15 08:20:54;;;;;;;0.70;0.70;;;;;;;10.97;100.00;100427.06;4959838;28;20241;-76
2021/10/15 08:23:20;;;;;;;0.93;0.80;;;;;;;10.94;100.00;100414.03;4981344;28;20247;-74
2021/10/15 08:25:48;;;;;;;1.27;0.80;;;;;;;10.84;100.00;100419.53;4957497;28;20218;-74
2021/10/15 08:28:16;;;;;;;2.17;0.83;;;;;;;10.80;100.00;100429.34;4941919;29;20187;-74
2021/10/15 08:30:49;;;;;;;2.17;0.93;;;;;;;10.96;100.00;100447.16;4985669;28;20232;-74
2021/10/15 08:33:14;;;;;;;1.57;0.73;;;;;;;11.00;100.00;100455.56;4970366;28;20647;-75
2021/10/15 08:35:40;;;;;;;2.70;1.27;;;;;;;10.81;100.00;100462.75;4979830;28;20305;-76
2021/10/15 08:38:05;;;;;;;2.20;0.80;;;;;;;11.01;100.00;100468.09;4964181;28;20221;-76
2021/10/15 08:40:33;;;;;;;0.93;0.77;;;;;;;11.04;100.00;100483.81;4979617;28;20229;-75
2021/10/15 08:42:59;;;;;;;4.00;0.70;;;;;;;11.03;100.00;100493.06;4964716;28;20177;-75
2021/10/15 08:45:28;;;;;;;3.33;0.83;;;;;;;11.02;100.00;100489.53;4964548;28;20701;-74
2021/10/15 08:47:57;;;;;;;1.40;0.70;;;;;;;11.16;100.00;100487.84;4996472;28;20177;-75
2021/10/15 08:50:23;;;;;;;1.73;0.60;;;;;;;11.14;100.00;100492.75;4951688;28;20269;-76
2021/10/15 08:52:49;;;;;;;0.50;0.50;;;;;;;11.23;100.00;100493.78;4938099;29;20183;-74
2021/10/15 08:55:15;;;;;;;1.00;0.50;;;;;;;11.22;100.00;100487.50;4964009;28;20607;-75
2021/10/15 08:57:58;;;;;;;1.43;0.70;;;;;;;11.33;100.00;100499.16;4961587;28;20209;-74
2021/10/15 09:00:33;;;;;;;2.83;0.70;;;;;;;11.44;100.00;100500.72;4970621;28;20206;-76
2021/10/15 09:03:12;;;;;;;2.63;0.83;;;;;;;11.46;100.00;100498.56;4958497;28;20244;-75
2021/10/15 09:05:41;;;;;;;2.43;0.77;;;;;;;11.48;100.00;100491.72;4985836;28;20221;-76
2021/10/15 09:08:12;;;;;;;2.70;0.83;;;;;;;11.43;100.00;100497.19;4942027;28;20175;-77
2021/10/15 09:10:38;;;;;;;4.07;1.03;;;;;;;11.51;100.00;100510.22;4964965;28;20292;-77
2021/10/15 09:13:15;;;;;;;2.33;0.73;;;;;;;11.35;100.00;100514.09;4960788;28;20186;-76
2021/10/15 09:15:43;;;;;;;1.70;0.80;;;;;;;11.25;100.00;100506.00;4953891;28;20229;-76
2021/10/15 09:18:12;;;;;;;3.43;0.73;;;;;;;11.40;100.00;100505.09;4957392;28;20237;-77
2021/10/15 09:20:42;;;;;;;2.90;0.53;;;;;;;11.44;100.00;100501.56;4932635;28;20237;-75
2021/10/15 09:23:09;;;;;;;3.20;0.90;;;;;;;11.23;100.00;100512.81;4992952;28;20189;-77
2021/10/15 09:25:38;;;;;;;3.70;0.70;;;;;;;11.00;100.00;100558.84;4954784;28;20259;-76
2021/10/15 09:28:17;;;;;;;2.10;0.73;;;;;;;11.15;100.00;100552.28;4926118;28;20229;-75
2021/10/15 09:30:44;;;;;;;3.07;0.70;;;;;;;11.18;100.00;100551.69;4946107;28;20316;-76
2021/10/15 09:33:12;;;;;;;2.67;0.47;;;;;;;11.28;100.00;100554.38;4963571;28;20206;-76
2021/10/15 09:35:40;;;;;;;1.97;0.90;;;;;;;11.28;100.00;100565.25;4955502;28;20856;-75
2021/10/15 09:38:09;;;;;;;3.70;0.80;;;;;;;11.10;100.00;100575.94;4933658;28;20221;-75
2021/10/15 09:40:44;;;;;;;1.97;0.70;;;;;;;11.13;100.00;100575.38;4959906;28;20221;-76
2021/10/15 09:43:11;;;;;;;6.07;1.27;;;;;;;11.08;100.00;100586.28;4961953;28;20289;-76
2021/10/15 09:45:41;;;;;;;3.23;0.63;;;;;;;11.27;100.00;100588.09;4973327;28;20218;-76
2021/10/15 09:48:32;;;;;;;3.70;1.07;;;;;;;11.34;100.00;100566.84;4972998;28;20608;-76
2021/10/15 09:51:28;;;;;;;3.23;0.80;;;;;;;11.31;100.00;100575.56;4946974;28;20233;-76
2021/10/15 09:54:10;;;;;;;3.70;0.97;;;;;;;11.37;100.00;100555.44;4993894;28;20212;-76
2021/10/15 09:56:38;;;;;;;4.17;0.80;;;;;;;11.22;100.00;100585.38;4951041;28;20692;-75
2021/10/15 09:59:09;;;;;;;3.10;0.70;;;;;;;11.14;100.00;100610.44;4965663;28;20201;-75
2021/10/15 10:01:41;;;;;;;5.73;0.80;;;;;;;11.14;100.00;100612.34;4972057;28;20618;-75
2021/10/15 10:04:08;;;;;;;2.80;1.03;;;;;;;11.23;100.00;100619.66;4947866;28;20232;-75
2021/10/15 10:06:34;;;;;;;3.00;1.20;;;;;;;11.32;100.00;100628.06;4948644;28;20221;-74
2021/10/15 10:09:00;;;;;;;0.87;0.80;;;;;;;11.48;100.00;100625.00;4960330;28;20181;-74
2021/10/15 10:11:27;;;;;;;4.23;1.00;;;;;;;11.39;100.00;100637.56;4972728;28;20773;-75
2021/10/15 10:13:52;;;;;;;2.43;0.80;;;;;;;11.37;100.00;100623.41;4976109;28;20270;-73
2021/10/15 10:16:21;;;;;;;2.93;0.70;;;;;;;11.27;100.00;100625.34;4945860;28;20222;-74
2021/10/15 10:18:46;;;;;;;3.63;1.00;;;;;;;11.32;100.00;100614.47;4955891;28;20263;-75
2021/10/15 10:21:23;;;;;;;3.07;0.70;;;;;;;11.46;100.00;100619.03;4958977;28;20230;-74
2021/10/15 10:24:07;;;;;;;3.87;0.83;;;;;;;11.61;100.00;100617.06;4961419;28;20273;-74
2021/10/15 10:26:55;;;;;;;1.87;0.77;;;;;;;11.58;100.00;100633.16;4986226;28;20226;-75
2021/10/15 10:29:26;;;;;;;4.27;1.00;;;;;;;11.87;100.00;100636.78;4959837;28;20209;-76
2021/10/15 10:31:53;;;;;;;2.73;0.60;;;;;;;11.91;100.00;100636.75;4957322;28;20277;-74
2021/10/15 10:34:25;;;;;;;4.50;0.93;;;;;;;12.07;100.00;100646.47;4963723;28;20196;-74
2021/10/15 10:37:03;;;;;;;3.37;0.80;;;;;;;12.31;100.00;100640.03;4959197;28;20229;-74
2021/10/15 10:39:29;;;;;;;4.50;0.80;;;;;;;12.28;100.00;100635.13;4974943;28;20313;-73
2021/10/15 10:42:10;;;;;;;2.90;0.80;;;;;;;12.26;100.00;100650.16;4985804;28;20253;-74
2021/10/15 10:44:50;;;;;;;5.13;1.23;;;;;;;12.40;100.00;100657.41;4923866;28;20186;-73
2021/10/15 10:47:20;;;;;;;5.77;1.00;;;;;;;12.77;100.00;100661.16;4977533;28;20297;-75
2021/10/15 10:50:09;;;;;;;5.93;1.40;;;;;;;12.77;100.00;100666.63;4936022;29;20218;-73
2021/10/15 10:52:55;;;;;;;3.53;0.80;;;;;;;12.81;100.00;100667.69;4972701;28;20729;-72
2021/10/15 10:55:43;;;;;;;5.80;1.53;;;;;;;12.84;100.00;100669.06;4977003;28;20729;-73
2021/10/15 10:58:31;;;;;;;5.90;1.10;;;;;;;12.97;100.00;100671.94;4946042;28;20253;-74
2021/10/15 11:01:25;;;;;;;6.13;1.10;;;;;;;13.19;100.00;100680.44;4953926;28;20238;-73
2021/10/15 11:03:51;;;;;;;4.63;0.97;;;;;;;13.01;100.00;100672.97;4981068;28;20326;-73
2021/10/15 11:06:20;;;;;;;4.30;1.20;;;;;;;13.34;100.00;100677.53;4925981;28;20222;-74
2021/10/15 11:08:46;;;;;;;5.13;1.10;;;;;;;13.35;100.00;100685.44;4971188;28;20182;-76
2021/10/15 11:11:22;;;;;;;5.10;1.47;;;;;;;13.60;100.00;100682.41;4956206;28;20334;-74
2021/10/15 11:13:49;;;;;;;5.83;1.30;;;;;;;13.47;100.00;100678.47;4972791;28;20185;-73
2021/10/15 11:16:19;;;;;;;5.73;1.43;;;;;;;13.28;100.00;100684.16;4940001;28;20222;-77
2021/10/15 11:18:45;;;;;;;4.53;1.00;;;;;;;13.05;100.00;100695.84;4940240;28;20214;-73
2021/10/15 11:21:13;;;;;;;7.43;1.37;;;;;;;13.57;100.00;100697.47;4956494;28;20943;-74
2021/10/15 11:23:39;;;;;;;5.57;1.20;;;;;;;13.71;100.00;100694.84;4940930;28;20183;-73
2021/10/15 11:26:08;;;;;;;4.60;1.13;;;;;;;13.45;100.00;100707.16;4972759;28;20859;-72
2021/10/15 11:28:36;;;;;;;7.53;1.90;;;;;;;13.15;100.00;100709.41;4950581;28;20185;-73
2021/10/15 11:31:04;;;;;;;3.93;1.00;;;;;;;13.24;100.00;100729.47;4964551;28;20225;-73